createdAt,value
2016-02-29T00:00:21.340Z,12.29
2016-02-29T00:01:21.295Z,12.34
2016-02-29T00:02:21.282Z,12.34
2016-02-29T00:03:21.254Z,12.37
2016-02-29T00:04:21.272Z,12.31
2016-02-29T00:05:21.197Z,12.37
2016-02-29T00:06:21.200Z,12.41
2016-02-29T00:07:21.155Z,12.37
2016-02-29T00:08:21.142Z,12.38
2016-02-29T00:09:21.098Z,12.33
2016-02-29T00:10:21.132Z,12.34
2016-02-29T00:11:21.057Z,12.37
2016-02-29T00:12:21.028Z,12.39
2016-02-29T00:13:21.015Z,12.33
2016-02-29T00:14:20.987Z,12.31
2016-02-29T00:15:20.958Z,12.33
2016-02-29T00:16:20.930Z,12.34
2016-02-29T00:17:20.901Z,12.33
2016-02-29T00:18:20.873Z,12.29
2016-02-29T00:19:20.860Z,12.33
2016-02-29T00:20:20.816Z,12.31
2016-02-29T00:21:20.802Z,12.31
2016-02-29T00:22:20.789Z,12.31
2016-02-29T00:23:20.964Z,12.33
2016-02-29T00:24:20.732Z,12.29
2016-02-29T00:25:20.751Z,12.29
2016-02-29T00:26:20.690Z,12.31
2016-02-29T00:27:20.647Z,12.26
2016-02-29T00:28:20.618Z,12.2
2016-02-29T00:29:20.590Z,12.29
2016-02-29T00:30:20.566Z,12.34
2016-02-29T00:31:20.553Z,12.31
2016-02-29T00:32:20.540Z,12.26
2016-02-29T00:33:20.542Z,12.33
2016-02-29T00:34:20.467Z,12.34
2016-02-29T00:35:20.454Z,12.3
2016-02-29T00:36:20.425Z,12.24
2016-02-29T00:37:20.397Z,12.3
2016-02-29T00:38:20.384Z,12.31
2016-02-29T00:39:20.355Z,12.29
2016-02-29T00:40:20.327Z,12.26
2016-02-29T00:41:20.299Z,12.23
2016-02-29T00:42:20.270Z,12.26
2016-02-29T00:43:20.241Z,12.27
2016-02-29T00:44:20.213Z,12.27
2016-02-29T00:45:20.200Z,12.21
2016-02-29T00:46:20.171Z,12.27
2016-02-29T00:47:20.174Z,12.3
2016-02-29T00:48:20.130Z,12.3
2016-02-29T00:49:20.085Z,12.3
2016-02-29T00:50:20.073Z,12.26
2016-02-29T00:51:20.060Z,12.24
2016-02-29T00:52:20.015Z,12.27
2016-02-29T00:53:20.002Z,12.23
2016-02-29T00:54:19.959Z,12.21
2016-02-29T00:55:19.961Z,12.2
2016-02-29T00:56:19.948Z,12.21
2016-02-29T00:57:19.888Z,12.26
2016-02-29T00:58:19.876Z,12.21
2016-02-29T00:59:19.862Z,12.23
2016-02-29T01:00:19.818Z,12.24
2016-02-29T01:01:19.789Z,12.19
2016-02-29T01:02:19.761Z,12.15
2016-02-29T01:03:19.764Z,12.24
2016-02-29T01:04:19.720Z,12.19
2016-02-29T01:05:19.706Z,12.23
2016-02-29T01:06:19.662Z,12.19
2016-02-29T01:07:19.650Z,12.26
2016-02-29T01:08:19.621Z,12.16
2016-02-29T01:09:19.592Z,12.11
2016-02-29T01:10:19.594Z,12.16
2016-02-29T01:11:19.566Z,12.21
2016-02-29T01:12:19.507Z,12.15
2016-02-29T01:13:19.494Z,12.19
2016-02-29T01:14:19.481Z,12.2
2016-02-29T01:15:19.452Z,12.19
2016-02-29T01:16:19.408Z,12.26
2016-02-29T01:17:19.380Z,12.15
2016-02-29T01:18:19.367Z,12.15
2016-02-29T01:19:19.369Z,12.12
2016-02-29T01:20:19.309Z,12.16
2016-02-29T01:21:19.282Z,12.16
2016-02-29T01:22:19.268Z,12.11
2016-02-29T01:23:19.240Z,12.19
2016-02-29T01:24:19.211Z,12.15
2016-02-29T01:25:19.448Z,12.11
2016-02-29T01:26:19.248Z,12.16
2016-02-29T01:27:19.141Z,12.2
2016-02-29T01:28:19.113Z,12.2
2016-02-29T01:29:19.083Z,12.2
2016-02-29T01:30:19.211Z,12.16
2016-02-29T01:31:19.042Z,12.13
2016-02-29T01:32:19.029Z,12.12
2016-02-29T01:33:19.016Z,12.16
2016-02-29T01:34:18.957Z,12.2
2016-02-29T01:35:18.959Z,12.12
2016-02-29T01:36:18.900Z,12.15
2016-02-29T01:37:18.871Z,12.15
2016-02-29T01:38:18.858Z,12.13
2016-02-29T01:39:18.829Z,12.13
2016-02-29T01:40:18.816Z,12.13
2016-02-29T01:41:18.819Z,12.16
2016-02-29T01:42:18.775Z,12.12
2016-02-29T01:43:18.730Z,12.16
2016-02-29T01:44:18.733Z,12.12
2016-02-29T01:45:18.689Z,12.06
2016-02-29T01:46:18.692Z,12.12
2016-02-29T01:47:18.632Z,12.13
2016-02-29T01:48:18.619Z,12.09
2016-02-29T01:49:18.591Z,12.06
2016-02-29T01:50:18.390Z,12.11
2016-02-29T01:51:18.518Z,12.12
2016-02-29T01:52:18.505Z,12.09
2016-02-29T01:53:18.477Z,12.09
2016-02-29T01:54:18.464Z,12.11
2016-02-29T01:55:18.419Z,12.08
2016-02-29T01:56:18.407Z,12.13
2016-02-29T01:57:18.379Z,12.06
2016-02-29T01:58:18.365Z,12.05
2016-02-29T01:59:18.321Z,12.06
2016-02-29T02:00:18.305Z,11.99
2016-02-29T02:01:18.247Z,12.12
2016-02-29T02:02:18.219Z,12.06
2016-02-29T02:03:18.175Z,12.08
2016-02-29T02:04:18.147Z,12.09
2016-02-29T02:05:18.120Z,12.08
2016-02-29T02:06:18.071Z,12.06
2016-02-29T02:07:18.037Z,12.05
2016-02-29T02:08:18.003Z,12.08
2016-02-29T02:09:17.969Z,12.04
2016-02-29T02:10:17.951Z,12.09
2016-02-29T02:11:17.921Z,12.05
2016-02-29T02:12:17.906Z,12.01
2016-02-29T02:13:17.859Z,12.05
2016-02-29T02:14:17.845Z,12.04
2016-02-29T02:15:17.799Z,12.09
2016-02-29T02:16:18.004Z,12.05
2016-02-29T02:17:17.756Z,12.04
2016-02-29T02:18:17.758Z,12.02
2016-02-29T02:19:17.697Z,12.02
2016-02-29T02:20:17.684Z,12.05
2016-02-29T02:21:17.702Z,12.04
2016-02-29T02:22:17.627Z,12.05
2016-02-29T02:23:17.598Z,12.06
2016-02-29T02:24:17.570Z,11.99
2016-02-29T02:25:17.573Z,12.05
2016-02-29T02:26:17.528Z,12.09
2016-02-29T02:27:17.500Z,12.01
2016-02-29T02:28:17.471Z,11.99
2016-02-29T02:29:17.442Z,12.08
2016-02-29T02:30:17.429Z,12.02
2016-02-29T02:31:17.401Z,12.02
2016-02-29T02:32:17.389Z,12.04
2016-02-29T02:33:17.360Z,12.02
2016-02-29T02:34:17.331Z,12.06
2016-02-29T02:35:17.302Z,11.99
2016-02-29T02:36:17.274Z,11.99
2016-02-29T02:37:17.246Z,12.05
2016-02-29T02:38:17.216Z,11.96
2016-02-29T02:39:17.204Z,12.04
2016-02-29T02:40:17.160Z,11.99
2016-02-29T02:41:17.146Z,11.93
2016-02-29T02:42:17.118Z,11.99
2016-02-29T02:43:17.090Z,11.96
2016-02-29T02:44:17.061Z,12.02
2016-02-29T02:45:17.032Z,11.97
2016-02-29T02:46:17.035Z,11.93
2016-02-29T02:47:17.007Z,12.02
2016-02-29T02:48:16.978Z,11.96
2016-02-29T02:49:16.933Z,12.04
2016-02-29T02:50:16.921Z,12.04
2016-02-29T02:51:16.892Z,12.04
2016-02-29T02:52:16.864Z,12.01
2016-02-29T02:53:16.835Z,12.01
2016-02-29T02:54:16.806Z,11.99
2016-02-29T02:55:16.809Z,12.01
2016-02-29T02:56:16.765Z,11.94
2016-02-29T02:57:16.752Z,11.97
2016-02-29T02:58:16.709Z,12.02
2016-02-29T02:59:16.711Z,11.93
2016-02-29T03:00:16.683Z,11.87
2016-02-29T03:01:16.638Z,12.01
2016-02-29T03:02:16.625Z,11.89
2016-02-29T03:03:16.597Z,11.86
2016-02-29T03:04:16.569Z,11.97
2016-02-29T03:05:16.555Z,11.86
2016-02-29T03:06:16.511Z,11.94
2016-02-29T03:07:16.498Z,11.96
2016-02-29T03:08:16.454Z,12.01
2016-02-29T03:09:16.441Z,11.87
2016-02-29T03:10:16.413Z,11.86
2016-02-29T03:11:16.399Z,11.93
2016-02-29T03:12:16.371Z,11.99
2016-02-29T03:13:16.343Z,11.87
2016-02-29T03:14:16.313Z,11.9
2016-02-29T03:15:16.269Z,11.9
2016-02-29T03:16:16.257Z,11.9
2016-02-29T03:17:16.229Z,11.86
2016-02-29T03:18:16.418Z,11.87
2016-02-29T03:19:16.187Z,11.9
2016-02-29T03:20:16.157Z,11.94
2016-02-29T03:21:16.145Z,11.97
2016-02-29T03:22:16.100Z,11.9
2016-02-29T03:23:16.120Z,11.9
2016-02-29T03:24:16.059Z,11.89
2016-02-29T03:25:16.062Z,11.97
2016-02-29T03:26:16.002Z,11.89
2016-02-29T03:27:15.973Z,11.96
2016-02-29T03:28:15.945Z,11.96
2016-02-29T03:29:15.917Z,11.87
2016-02-29T03:30:15.904Z,11.9
2016-02-29T03:31:15.875Z,11.75
2016-02-29T03:32:15.847Z,11.9
2016-02-29T03:33:15.833Z,11.78
2016-02-29T03:34:15.806Z,11.87
2016-02-29T03:35:15.777Z,11.75
2016-02-29T03:36:15.748Z,11.83
2016-02-29T03:37:15.719Z,11.85
2016-02-29T03:38:15.691Z,11.93
2016-02-29T03:39:15.662Z,11.89
2016-02-29T03:40:15.649Z,11.87
2016-02-29T03:41:15.620Z,11.77
2016-02-29T03:42:15.607Z,11.82
2016-02-29T03:43:15.580Z,11.87
2016-02-29T03:44:15.535Z,11.89
2016-02-29T03:45:15.521Z,11.78
2016-02-29T03:46:15.493Z,11.77
2016-02-29T03:47:15.480Z,11.78
2016-02-29T03:48:15.437Z,11.78
2016-02-29T03:49:15.424Z,11.78
2016-02-29T03:50:15.410Z,11.82
2016-02-29T03:51:15.366Z,11.83
2016-02-29T03:52:15.337Z,11.9
2016-02-29T03:53:15.310Z,11.8
2016-02-29T03:54:15.296Z,11.83
2016-02-29T03:55:15.268Z,11.77
2016-02-29T03:56:15.239Z,11.86
2016-02-29T03:57:15.226Z,11.86
2016-02-29T03:58:15.198Z,11.78
2016-02-29T03:59:15.170Z,11.83
2016-02-29T04:00:15.140Z,11.82
2016-02-29T04:01:15.128Z,11.8
2016-02-29T04:02:15.100Z,11.86
2016-02-29T04:03:15.056Z,11.78
2016-02-29T04:04:15.042Z,11.75
2016-02-29T04:05:15.076Z,11.87
2016-02-29T04:06:14.986Z,11.82
2016-02-29T04:07:14.956Z,11.82
2016-02-29T04:08:14.927Z,11.82
2016-02-29T04:09:14.914Z,11.74
2016-02-29T04:10:14.886Z,11.86
2016-02-29T04:11:14.873Z,11.86
2016-02-29T04:12:14.844Z,11.75
2016-02-29T04:13:14.816Z,11.77
2016-02-29T04:14:14.788Z,11.83
2016-02-29T04:15:14.915Z,11.78
2016-02-29T04:16:14.730Z,11.82
2016-02-29T04:17:14.701Z,11.82
2016-02-29T04:18:14.689Z,11.83
2016-02-29T04:19:14.660Z,11.8
2016-02-29T04:20:14.632Z,11.75
2016-02-29T04:21:14.604Z,11.75
2016-02-29T04:22:14.621Z,11.83
2016-02-29T04:23:14.546Z,11.82
2016-02-29T04:24:14.564Z,11.78
2016-02-29T04:25:14.551Z,11.82
2016-02-29T04:26:14.476Z,11.8
2016-02-29T04:27:14.448Z,11.75
2016-02-29T04:28:14.420Z,11.74
2016-02-29T04:29:14.422Z,11.64
2016-02-29T04:30:14.363Z,11.71
2016-02-29T04:31:14.350Z,11.77
2016-02-29T04:32:14.321Z,11.78
2016-02-29T04:33:14.293Z,11.75
2016-02-29T04:34:14.279Z,11.77
2016-02-29T04:35:14.252Z,11.72
2016-02-29T04:36:14.223Z,11.75
2016-02-29T04:37:14.226Z,11.68
2016-02-29T04:38:14.181Z,11.7
2016-02-29T04:39:14.153Z,11.72
2016-02-29T04:40:14.109Z,11.7
2016-02-29T04:41:14.095Z,11.72
2016-02-29T04:42:14.067Z,11.72
2016-02-29T04:43:14.054Z,11.8
2016-02-29T04:44:14.025Z,11.8
2016-02-29T04:45:13.997Z,11.71
2016-02-29T04:46:13.984Z,11.71
2016-02-29T04:47:13.939Z,11.74
2016-02-29T04:48:13.912Z,11.7
2016-02-29T04:49:13.883Z,11.77
2016-02-29T04:50:13.714Z,11.8
2016-02-29T04:51:13.856Z,11.75
2016-02-29T04:52:13.813Z,11.57
2016-02-29T04:53:13.784Z,11.65
2016-02-29T04:54:13.771Z,11.7
2016-02-29T04:55:13.727Z,11.64
2016-02-29T04:56:13.699Z,11.7
2016-02-29T04:57:13.686Z,11.72
2016-02-29T04:58:13.657Z,11.82
2016-02-29T04:59:13.644Z,11.65
2016-02-29T05:00:13.630Z,11.61
2016-02-29T05:01:13.588Z,11.65
2016-02-29T05:02:13.543Z,11.56
2016-02-29T05:03:13.514Z,11.67
2016-02-29T05:04:13.501Z,11.64
2016-02-29T05:05:13.488Z,11.64
2016-02-29T05:06:13.463Z,11.59
2016-02-29T05:07:13.434Z,11.65
2016-02-29T05:08:13.421Z,11.68
2016-02-29T05:09:13.393Z,11.64
2016-02-29T05:10:13.364Z,11.59
2016-02-29T05:11:13.335Z,11.67
2016-02-29T05:12:13.431Z,11.59
2016-02-29T05:13:13.293Z,11.65
2016-02-29T05:14:13.251Z,11.59
2016-02-29T05:15:13.237Z,11.59
2016-02-29T05:16:13.209Z,11.64
2016-02-29T05:17:13.179Z,11.68
2016-02-29T05:18:13.133Z,11.71
2016-02-29T05:19:13.136Z,11.67
2016-02-29T05:20:13.091Z,11.65
2016-02-29T05:21:13.062Z,11.67
2016-02-29T05:22:13.050Z,11.67
2016-02-29T05:23:13.021Z,11.67
2016-02-29T05:24:13.008Z,11.77
2016-02-29T05:25:12.995Z,11.62
2016-02-29T05:26:12.950Z,11.65
2016-02-29T05:27:12.828Z,11.65
2016-02-29T05:28:12.894Z,11.67
2016-02-29T05:29:12.866Z,11.64
2016-02-29T05:30:12.836Z,11.67
2016-02-29T05:31:12.808Z,11.65
2016-02-29T05:32:12.795Z,11.67
2016-02-29T05:33:12.766Z,11.64
2016-02-29T05:34:12.739Z,11.64
2016-02-29T05:35:12.710Z,11.65
2016-02-29T05:36:12.682Z,11.65
2016-02-29T05:37:12.668Z,11.64
2016-02-29T05:38:12.640Z,11.65
2016-02-29T05:39:12.611Z,11.64
2016-02-29T05:40:12.583Z,11.65
2016-02-29T05:41:12.554Z,11.62
2016-02-29T05:42:12.573Z,11.72
2016-02-29T05:43:12.512Z,11.64
2016-02-29T05:44:12.469Z,11.67
2016-02-29T05:45:12.517Z,11.62
2016-02-29T05:46:12.427Z,11.64
2016-02-29T05:47:12.415Z,11.72
2016-02-29T05:48:12.370Z,11.65
2016-02-29T05:49:12.357Z,11.57
2016-02-29T05:50:12.329Z,11.67
2016-02-29T05:51:12.300Z,11.54
2016-02-29T05:52:12.271Z,11.7
2016-02-29T05:53:12.259Z,11.72
2016-02-29T05:54:12.230Z,11.57
2016-02-29T05:55:12.186Z,11.57
2016-02-29T05:56:12.172Z,11.67
2016-02-29T05:57:12.157Z,11.64
2016-02-29T05:58:12.436Z,11.67
2016-02-29T05:59:12.128Z,11.67
2016-02-29T06:00:12.137Z,11.67
2016-02-29T06:01:15.223Z,11.67
2016-02-29T06:02:12.022Z,11.64
2016-02-29T06:03:11.978Z,11.57
2016-02-29T06:04:12.169Z,11.56
2016-02-29T06:05:11.952Z,11.67
2016-02-29T06:06:11.909Z,11.61
2016-02-29T06:07:11.880Z,11.64
2016-02-29T06:08:11.867Z,11.61
2016-02-29T06:09:11.854Z,11.61
2016-02-29T06:10:11.825Z,11.61
2016-02-29T06:11:11.781Z,11.65
2016-02-29T06:12:11.863Z,11.59
2016-02-29T06:13:11.740Z,11.59
2016-02-29T06:14:11.711Z,11.64
2016-02-29T06:15:11.979Z,11.64
2016-02-29T06:16:11.670Z,11.62
2016-02-29T06:17:11.641Z,11.64
2016-02-29T06:18:11.621Z,11.56
2016-02-29T06:19:11.577Z,11.57
2016-02-29T06:20:11.579Z,11.67
2016-02-29T06:21:11.519Z,11.65
2016-02-29T06:22:11.506Z,11.59
2016-02-29T06:23:11.493Z,11.67
2016-02-29T06:24:11.449Z,11.59
2016-02-29T06:25:11.421Z,11.52
2016-02-29T06:26:11.392Z,11.68
2016-02-29T06:27:11.254Z,11.65
2016-02-29T06:28:11.365Z,11.64
2016-02-29T06:29:11.322Z,11.54
2016-02-29T06:30:11.293Z,11.62
2016-02-29T06:31:11.281Z,11.68
2016-02-29T06:32:11.251Z,11.64
2016-02-29T06:33:11.223Z,11.57
2016-02-29T06:34:11.210Z,11.59
2016-02-29T06:35:11.166Z,11.61
2016-02-29T06:36:11.137Z,11.57
2016-02-29T06:37:11.125Z,11.64
2016-02-29T06:38:11.097Z,11.62
2016-02-29T06:39:11.067Z,11.72
2016-02-29T06:40:11.039Z,11.64
2016-02-29T06:41:11.010Z,11.56
2016-02-29T06:42:11.091Z,11.7
2016-02-29T06:43:10.953Z,11.68
2016-02-29T06:44:10.941Z,11.62
2016-02-29T06:45:10.911Z,11.7
2016-02-29T06:46:10.883Z,11.54
2016-02-29T06:47:10.870Z,11.59
2016-02-29T06:48:10.842Z,11.64
2016-02-29T06:49:10.813Z,11.64
2016-02-29T06:50:10.785Z,11.61
2016-02-29T06:51:10.756Z,11.61
2016-02-29T06:52:10.743Z,11.62
2016-02-29T06:53:10.715Z,11.64
2016-02-29T06:54:10.670Z,11.64
2016-02-29T06:55:10.642Z,11.62
2016-02-29T06:56:10.629Z,11.64
2016-02-29T06:57:10.616Z,11.68
2016-02-29T06:58:10.571Z,11.67
2016-02-29T06:59:10.543Z,11.62
2016-02-29T07:00:10.530Z,11.67
2016-02-29T07:01:10.737Z,11.64
2016-02-29T07:02:10.489Z,11.65
2016-02-29T07:03:10.460Z,11.65
2016-02-29T07:04:10.416Z,11.67
2016-02-29T07:05:10.387Z,11.67
2016-02-29T07:06:10.390Z,11.67
2016-02-29T07:07:10.361Z,11.67
2016-02-29T07:08:10.333Z,11.68
2016-02-29T07:09:10.305Z,11.62
2016-02-29T07:10:10.260Z,11.65
2016-02-29T07:11:10.247Z,11.65
2016-02-29T07:12:10.219Z,11.61
2016-02-29T07:13:10.190Z,11.62
2016-02-29T07:14:10.177Z,11.61
2016-02-29T07:15:10.133Z,11.67
2016-02-29T07:16:10.120Z,11.61
2016-02-29T07:17:10.107Z,11.61
2016-02-29T07:18:10.063Z,11.65
2016-02-29T07:19:10.035Z,11.75
2016-02-29T07:20:10.038Z,11.74
2016-02-29T07:21:09.993Z,11.64
2016-02-29T07:22:09.996Z,11.7
2016-02-29T07:23:09.935Z,11.64
2016-02-29T07:24:09.938Z,11.68
2016-02-29T07:25:09.879Z,11.68
2016-02-29T07:26:09.881Z,11.71
2016-02-29T07:27:09.838Z,11.62
2016-02-29T07:28:09.809Z,11.7
2016-02-29T07:29:09.796Z,11.65
2016-02-29T07:30:09.751Z,11.65
2016-02-29T07:31:09.739Z,11.65
2016-02-29T07:32:09.695Z,11.67
2016-02-29T07:33:09.681Z,11.68
2016-02-29T07:34:09.668Z,11.61
2016-02-29T07:35:09.625Z,11.67
2016-02-29T07:36:09.642Z,11.68
2016-02-29T07:37:09.583Z,11.65
2016-02-29T07:38:09.554Z,11.56
2016-02-29T07:39:09.541Z,11.65
2016-02-29T07:40:09.357Z,11.65
2016-02-29T07:41:09.469Z,11.61
2016-02-29T07:42:09.440Z,11.61
2016-02-29T07:43:09.474Z,11.62
2016-02-29T07:44:09.399Z,11.64
2016-02-29T07:45:09.370Z,11.61
2016-02-29T07:46:09.342Z,11.64
2016-02-29T07:47:09.313Z,11.77
2016-02-29T07:48:09.300Z,11.77
2016-02-29T07:49:09.256Z,11.68
2016-02-29T07:50:09.243Z,11.65
2016-02-29T07:51:09.246Z,11.62
2016-02-29T07:52:09.201Z,11.65
2016-02-29T07:53:09.157Z,11.77
2016-02-29T07:54:09.144Z,11.78
2016-02-29T07:55:09.116Z,11.71
2016-02-29T07:56:09.087Z,11.71
2016-02-29T07:57:09.074Z,11.75
2016-02-29T07:58:09.296Z,11.77
2016-02-29T07:59:09.033Z,11.74
2016-02-29T08:00:08.988Z,11.72
2016-02-29T08:01:08.960Z,11.8
2016-02-29T08:02:08.947Z,11.74
2016-02-29T08:03:09.121Z,11.71
2016-02-29T08:04:08.889Z,11.7
2016-02-29T08:05:08.705Z,11.74
2016-02-29T08:06:08.834Z,11.74
2016-02-29T08:07:08.820Z,11.77
2016-02-29T08:08:08.806Z,11.78
2016-02-29T08:09:08.762Z,11.77
2016-02-29T08:10:08.750Z,11.8
2016-02-29T08:11:08.706Z,11.78
2016-02-29T08:12:08.678Z,11.75
2016-02-29T08:13:08.664Z,11.83
2016-02-29T08:14:08.620Z,11.82
2016-02-29T08:15:08.607Z,11.8
2016-02-29T08:16:08.578Z,11.8
2016-02-29T08:17:08.549Z,11.83
2016-02-29T08:18:08.536Z,11.82
2016-02-29T08:19:08.508Z,11.77
2016-02-29T08:20:08.464Z,11.83
2016-02-29T08:21:08.451Z,11.77
2016-02-29T08:22:08.438Z,11.86
2016-02-29T08:23:08.409Z,11.8
2016-02-29T08:24:08.382Z,11.83
2016-02-29T08:25:08.353Z,11.86
2016-02-29T08:26:08.324Z,11.77
2016-02-29T08:27:08.296Z,11.86
2016-02-29T08:28:08.268Z,11.8
2016-02-29T08:29:08.254Z,11.89
2016-02-29T08:30:08.225Z,11.94
2016-02-29T08:31:08.212Z,11.82
2016-02-29T08:32:08.185Z,11.94
2016-02-29T08:33:08.156Z,11.82
2016-02-29T08:34:08.127Z,11.85
2016-02-29T08:35:08.098Z,11.82
2016-02-29T08:36:07.929Z,11.86
2016-02-29T08:37:08.041Z,11.87
2016-02-29T08:38:08.028Z,11.87
2016-02-29T08:39:08.000Z,11.89
2016-02-29T08:40:07.971Z,11.99
2016-02-29T08:41:07.959Z,11.93
2016-02-29T08:42:07.914Z,11.94
2016-02-29T08:43:07.901Z,11.93
2016-02-29T08:44:07.872Z,11.87
2016-02-29T08:45:07.845Z,11.97
2016-02-29T08:46:07.816Z,11.89
2016-02-29T08:47:07.787Z,11.89
2016-02-29T08:48:07.758Z,11.87
2016-02-29T08:49:07.745Z,11.99
2016-02-29T08:50:07.732Z,11.9
2016-02-29T08:51:07.922Z,11.93
2016-02-29T08:52:07.518Z,11.89
2016-02-29T08:53:07.631Z,11.86
2016-02-29T08:54:07.759Z,11.93
2016-02-29T08:55:07.590Z,12.05
2016-02-29T08:56:07.561Z,12.02
2016-02-29T08:57:07.532Z,12.02
2016-02-29T08:58:07.504Z,11.97
2016-02-29T08:59:07.490Z,11.96
2016-02-29T09:00:07.462Z,12.02
2016-02-29T09:01:07.435Z,12.05
2016-02-29T09:02:07.421Z,11.99
2016-02-29T09:03:07.393Z,12.02
2016-02-29T09:04:07.348Z,12.01
2016-02-29T09:05:07.537Z,11.99
2016-02-29T09:06:07.165Z,12.02
2016-02-29T09:07:07.293Z,11.99
2016-02-29T09:08:07.249Z,11.97
2016-02-29T09:09:07.236Z,12.02
2016-02-29T09:10:07.207Z,11.99
2016-02-29T09:11:07.225Z,12.04
2016-02-29T09:12:07.149Z,12.06
2016-02-29T09:13:07.152Z,12.02
2016-02-29T09:14:07.108Z,12.01
2016-02-29T09:15:07.096Z,12.01
2016-02-29T09:16:07.052Z,12.08
2016-02-29T09:17:07.038Z,12.05
2016-02-29T09:18:07.025Z,12.01
2016-02-29T09:19:06.982Z,12.04
2016-02-29T09:20:06.938Z,12.11
2016-02-29T09:21:06.955Z,12.06
2016-02-29T09:22:06.896Z,12.12
2016-02-29T09:23:06.867Z,12.08
2016-02-29T09:24:06.854Z,12.11
2016-02-29T09:25:06.809Z,12.11
2016-02-29T09:26:06.812Z,12.06
2016-02-29T09:27:06.769Z,12.11
2016-02-29T09:28:06.740Z,12.15
2016-02-29T09:29:06.712Z,12.13
2016-02-29T09:30:06.683Z,12.11
2016-02-29T09:31:06.669Z,12.21
2016-02-29T09:32:06.484Z,12.16
2016-02-29T09:33:06.613Z,12.12
2016-02-29T09:34:06.600Z,12.09
2016-02-29T09:35:06.556Z,12.13
2016-02-29T09:36:06.527Z,12.13
2016-02-29T09:37:06.514Z,12.19
2016-02-29T09:38:06.517Z,12.13
2016-02-29T09:39:06.473Z,12.2
2016-02-29T09:40:06.444Z,12.19
2016-02-29T09:41:06.416Z,12.15
2016-02-29T09:42:06.386Z,12.15
2016-02-29T09:43:06.374Z,12.16
2016-02-29T09:44:06.329Z,12.16
2016-02-29T09:45:06.316Z,12.21
2016-02-29T09:46:06.272Z,12.23
2016-02-29T09:47:06.260Z,12.23
2016-02-29T10:16:20.559Z,12.45
2016-02-29T10:17:17.482Z,12.45
2016-02-29T10:18:17.471Z,12.45
2016-02-29T10:19:17.738Z,12.44
2016-02-29T10:20:17.429Z,12.39
2016-02-29T10:21:17.415Z,12.44
2016-02-29T10:22:17.356Z,12.51
2016-02-29T10:23:17.373Z,12.44
2016-02-29T10:24:17.376Z,12.44
2016-02-29T10:25:17.317Z,12.34
2016-02-29T10:26:17.257Z,12.52
2016-02-29T10:27:17.259Z,12.51
2016-02-29T10:28:17.231Z,12.45
2016-02-29T10:29:17.265Z,12.42
2016-02-29T10:30:17.175Z,12.41
2016-02-29T10:31:17.145Z,12.57
2016-02-29T10:32:17.117Z,12.45
2016-02-29T10:33:17.104Z,12.42
2016-02-29T10:34:17.091Z,12.44
2016-02-29T10:35:17.094Z,12.52
2016-02-29T10:36:17.019Z,12.54
2016-02-29T10:37:16.990Z,12.52
2016-02-29T10:38:16.993Z,12.44
2016-02-29T10:39:16.949Z,12.52
2016-02-29T10:40:16.935Z,12.48
2016-02-29T10:41:16.907Z,12.57
2016-02-29T10:42:16.879Z,12.52
2016-02-29T10:43:16.881Z,12.6
2016-02-29T10:44:17.274Z,12.52
2016-02-29T10:45:16.793Z,12.52
2016-02-29T10:46:16.796Z,12.59
2016-02-29T10:47:16.751Z,12.59
2016-02-29T10:48:16.738Z,12.59
2016-02-29T10:49:16.710Z,12.66
2016-02-29T10:50:16.665Z,12.62
2016-02-29T10:51:16.653Z,12.67
2016-02-29T10:52:16.624Z,12.67
2016-02-29T10:53:16.611Z,12.66
2016-02-29T10:54:16.567Z,12.64
2016-02-29T10:55:16.570Z,12.71
2016-02-29T10:56:16.541Z,12.74
2016-02-29T10:57:16.512Z,12.69
2016-02-29T10:58:16.359Z,12.7
2016-02-29T10:59:16.455Z,12.75
2016-02-29T11:00:16.458Z,12.74
2016-02-29T11:01:16.414Z,12.78
2016-02-29T11:02:16.386Z,12.82
2016-02-29T11:03:16.356Z,12.92
2016-02-29T11:04:16.344Z,12.77
2016-02-29T11:05:16.524Z,12.87
2016-02-29T11:06:15.539Z,12.89
2016-02-29T11:07:16.233Z,12.96
2016-02-29T11:08:16.210Z,12.85
2016-02-29T11:09:16.170Z,12.92
2016-02-29T11:10:16.146Z,12.96
2016-02-29T11:11:16.108Z,12.87
2016-02-29T11:12:16.076Z,12.93
2016-02-29T11:13:15.747Z,12.89
2016-02-29T11:14:16.027Z,13.03
2016-02-29T11:15:15.979Z,12.95
2016-02-29T11:16:16.244Z,12.97
2016-02-29T11:17:15.931Z,12.97
2016-02-29T11:18:15.900Z,13.03
2016-02-29T11:19:15.886Z,13.02
2016-02-29T11:20:15.841Z,13.07
2016-02-29T11:21:15.951Z,13.03
2016-02-29T11:22:15.797Z,12.99
2016-02-29T11:23:15.783Z,12.95
2016-02-29T11:24:15.754Z,13
2016-02-29T11:25:15.725Z,13.07
2016-02-29T11:26:15.712Z,13
2016-02-29T11:27:15.699Z,13
2016-02-29T11:28:15.701Z,13.03
2016-02-29T11:29:15.656Z,13.11
2016-02-29T11:30:15.612Z,13.07
2016-02-29T11:31:15.567Z,13.11
2016-02-29T11:32:15.570Z,13.11
2016-02-29T11:33:15.760Z,13.18
2016-02-29T11:34:15.544Z,13.14
2016-02-29T11:35:15.484Z,13.12
2016-02-29T11:36:15.471Z,13.17
2016-02-29T11:37:15.427Z,13.27
2016-02-29T11:38:15.461Z,13.15
2016-02-29T11:39:15.369Z,13.24
2016-02-29T11:40:15.404Z,13.24
2016-02-29T11:41:15.344Z,13.17
2016-02-29T11:42:15.315Z,13.2
2016-02-29T11:43:15.302Z,13.3
2016-02-29T11:44:15.258Z,13.2
2016-02-29T11:45:15.307Z,13.14
2016-02-29T11:46:15.216Z,13.25
2016-02-29T11:47:15.203Z,13.25
2016-02-29T11:48:15.176Z,13.25
2016-02-29T11:49:15.146Z,13.25
2016-02-29T11:50:15.134Z,13.3
2016-02-29T11:51:15.105Z,13.37
2016-02-29T11:52:15.092Z,13.32
2016-02-29T11:53:15.079Z,13.3
2016-02-29T11:54:15.035Z,13.32
2016-02-29T11:55:15.007Z,13.27
2016-02-29T11:56:14.993Z,13.38
2016-02-29T11:57:14.950Z,13.4
2016-02-29T11:58:14.952Z,13.37
2016-02-29T11:59:14.955Z,13.4
2016-02-29T12:00:14.879Z,13.4
2016-02-29T12:01:14.882Z,13.4
2016-02-29T12:02:14.838Z,13.33
2016-02-29T12:03:14.825Z,13.43
2016-02-29T12:04:14.780Z,13.47
2016-02-29T12:05:14.767Z,13.47
2016-02-29T12:06:14.739Z,13.46
2016-02-29T12:07:14.727Z,13.52
2016-02-29T12:08:14.698Z,13.58
2016-02-29T12:09:14.685Z,13.58
2016-02-29T12:10:14.656Z,13.59
2016-02-29T12:11:14.643Z,13.56
2016-02-29T12:12:14.599Z,13.54
2016-02-29T12:13:14.618Z,13.52
2016-02-29T12:14:14.558Z,13.46
2016-02-29T12:15:14.529Z,13.46
2016-02-29T12:16:14.376Z,13.62
2016-02-29T12:17:14.488Z,13.58
2016-02-29T12:18:14.678Z,13.52
2016-02-29T12:19:14.446Z,13.55
2016-02-29T12:20:14.449Z,13.55
2016-02-29T12:21:14.421Z,13.59
2016-02-29T12:22:14.376Z,13.61
2016-02-29T12:23:14.348Z,13.58
2016-02-29T12:24:14.335Z,13.63
2016-02-29T12:25:14.290Z,13.77
2016-02-29T12:26:14.278Z,13.81
2016-02-29T12:27:14.264Z,13.84
2016-02-29T12:28:14.236Z,13.94
2016-02-29T12:29:14.223Z,14.04
2016-02-29T12:30:14.178Z,13.99
2016-02-29T12:31:14.166Z,14.07
2016-02-29T12:32:14.122Z,14.14
2016-02-29T12:33:14.124Z,14.24
2016-02-29T12:34:14.081Z,14.17
2016-02-29T12:35:14.067Z,14.2
2016-02-29T12:36:14.055Z,14.06
2016-02-29T12:37:13.292Z,14.02
2016-02-29T12:38:13.841Z,13.99
2016-02-29T12:39:13.969Z,14.1
2016-02-29T12:40:13.940Z,14.19
2016-02-29T12:41:13.928Z,14.14
2016-02-29T12:42:13.899Z,14.12
2016-02-29T12:43:13.886Z,14.29
2016-02-29T12:44:13.841Z,14.34
2016-02-29T12:45:13.829Z,14.34
2016-02-29T12:46:13.831Z,14.34
2016-02-29T12:47:13.788Z,14.44
2016-02-29T12:48:13.758Z,14.47
2016-02-29T12:49:13.730Z,14.52
2016-02-29T12:50:13.717Z,14.54
2016-02-29T12:51:13.688Z,14.43
2016-02-29T12:52:13.676Z,14.44
2016-02-29T12:53:13.663Z,14.56
2016-02-29T12:54:13.634Z,14.52
2016-02-29T12:55:13.621Z,14.47
2016-02-29T12:56:13.577Z,14.53
2016-02-29T12:57:13.579Z,14.47
2016-02-29T12:58:13.645Z,14.57
2016-02-29T12:59:13.506Z,14.57
2016-02-29T13:00:13.494Z,14.61
2016-02-29T13:01:13.481Z,14.78
2016-02-29T13:02:13.500Z,14.74
2016-02-29T13:03:13.423Z,14.74
2016-02-29T13:04:13.473Z,14.71
2016-02-29T13:05:13.373Z,14.8
2016-02-29T13:06:13.345Z,14.88
2016-02-29T13:07:13.331Z,14.94
2016-02-29T13:08:13.303Z,14.98
2016-02-29T13:09:13.289Z,15.02
2016-02-29T13:10:13.261Z,14.9
2016-02-29T13:11:13.248Z,14.88
2016-02-29T13:12:13.236Z,14.93
2016-02-29T13:13:13.207Z,14.99
2016-02-29T13:14:13.178Z,14.98
2016-02-29T13:15:13.337Z,14.98
2016-02-29T13:16:13.121Z,15.01
2016-02-29T13:17:13.139Z,15.09
2016-02-29T13:18:13.111Z,15.13
2016-02-29T13:19:13.067Z,15.05
2016-02-29T13:20:13.053Z,14.99
2016-02-29T13:21:13.010Z,15.01
2016-02-29T13:22:12.996Z,15.05